sensor_id;sensor_type;location;lat;lon;timestamp;pressure;altitude;pressure_sealevel;temperature;humidity
25664;BME280;13522;50.018;20.014;2022-12-07T00:01:21;98415.63;;;2.61;100.00
25664;BME280;13522;50.018;20.014;2022-12-07T00:04:33;98409.56;;;2.61;100.00
25664;BME280;13522;50.018;20.014;2022-12-07T00:07:45;98413.84;;;2.62;100.00
25664;BME280;13522;50.018;20.014;2022-12-07T00:11:02;98409.56;;;2.61;100.00
25664;BME280;13522;50.018;20.014;2022-12-07T00:14:16;98412.08;;;2.62;100.00
25664;BME280;13522;50.018;20.014;2022-12-07T00:17:29;98413.11;;;2.60;100.00
25664;BME280;13522;50.018;20.014;2022-12-07T00:20:40;98406.83;;;2.62;100.00
25664;BME280;13522;50.018;20.014;2022-12-07T00:23:53;98419.72;;;2.65;100.00
25664;BME280;13522;50.018;20.014;2022-12-07T00:27:06;98413.44;;;2.68;100.00
25664;BME280;13522;50.018;20.014;2022-12-07T00:30:18;98397.82;;;2.67;100.00
25664;BME280;13522;50.018;20.014;2022-12-07T00:33:30;98406.42;;;2.69;100.00
25664;BME280;13522;50.018;20.014;2022-12-07T00:36:42;98408.09;;;2.70;100.00
25664;BME280;13522;50.018;20.014;2022-12-07T00:39:55;98415.44;;;2.64;100.00
25664;BME280;13522;50.018;20.014;2022-12-07T00:43:07;98405.80;;;2.65;100.00
25664;BME280;13522;50.018;20.014;2022-12-07T00:46:19;98406.61;;;2.65;100.00
25664;BME280;13522;50.018;20.014;2022-12-07T00:49:33;98409.23;;;2.65;100.00
25664;BME280;13522;50.018;20.014;2022-12-07T00:52:44;98410.08;;;2.66;100.00
25664;BME280;13522;50.018;20.014;2022-12-07T00:55:56;98413.55;;;2.67;100.00
25664;BME280;13522;50.018;20.014;2022-12-07T00:59:14;98397.20;;;2.63;100.00
25664;BME280;13522;50.018;20.014;2022-12-07T01:02:25;98402.44;;;2.63;100.00
25664;BME280;13522;50.018;20.014;2022-12-07T01:05:37;98398.23;;;2.60;100.00
25664;BME280;13522;50.018;20.014;2022-12-07T01:08:50;98395.83;;;2.57;100.00
25664;BME280;13522;50.018;20.014;2022-12-07T01:12:02;98397.50;;;2.58;100.00
25664;BME280;13522;50.018;20.014;2022-12-07T01:15:14;98395.72;;;2.59;100.00
25664;BME280;13522;50.018;20.014;2022-12-07T01:18:27;98398.13;;;2.62;100.00
25664;BME280;13522;50.018;20.014;2022-12-07T01:21:40;98388.59;;;2.61;100.00
25664;BME280;13522;50.018;20.014;2022-12-07T01:24:52;98385.86;;;2.62;100.00
25664;BME280;13522;50.018;20.014;2022-12-07T01:28:04;98387.34;;;2.67;100.00
25664;BME280;13522;50.018;20.014;2022-12-07T01:31:18;98386.05;;;2.59;100.00
25664;BME280;13522;50.018;20.014;2022-12-07T01:34:31;98379.03;;;2.60;100.00
25664;BME280;13522;50.018;20.014;2022-12-07T01:37:43;98375.56;;;2.59;100.00
25664;BME280;13522;50.018;20.014;2022-12-07T01:40:58;98378.41;;;2.56;100.00
25664;BME280;13522;50.018;20.014;2022-12-07T01:44:22;98371.39;;;2.57;100.00
25664;BME280;13522;50.018;20.014;2022-12-07T01:47:36;98369.51;;;2.59;100.00
25664;BME280;13522;50.018;20.014;2022-12-07T01:50:50;98378.52;;;2.55;100.00
25664;BME280;13522;50.018;20.014;2022-12-07T01:54:03;98374.75;;;2.59;100.00
25664;BME280;13522;50.018;20.014;2022-12-07T01:57:17;98380.81;;;2.59;100.00
25664;BME280;13522;50.018;20.014;2022-12-07T02:00:30;98378.92;;;2.61;100.00
25664;BME280;13522;50.018;20.014;2022-12-07T02:03:43;98373.05;;;2.58;100.00
25664;BME280;13522;50.018;20.014;2022-12-07T02:06:56;98379.37;;;2.55;100.00
25664;BME280;13522;50.018;20.014;2022-12-07T02:10:18;98367.00;;;2.57;100.00
25664;BME280;13522;50.018;20.014;2022-12-07T02:13:33;98369.70;;;2.56;100.00
25664;BME280;13522;50.018;20.014;2022-12-07T02:16:54;98367.00;;;2.57;100.00
25664;BME280;13522;50.018;20.014;2022-12-07T02:20:21;98365.00;;;2.61;100.00
25664;BME280;13522;50.018;20.014;2022-12-07T02:27:38;98364.45;;;2.56;100.00
25664;BME280;13522;50.018;20.014;2022-12-07T02:30:57;98367.41;;;2.51;100.00
25664;BME280;13522;50.018;20.014;2022-12-07T02:34:14;98379.78;;;2.49;100.00
25664;BME280;13522;50.018;20.014;2022-12-07T02:37:35;98369.30;;;2.49;100.00
25664;BME280;13522;50.018;20.014;2022-12-07T02:40:52;98372.95;;;2.47;100.00
25664;BME280;13522;50.018;20.014;2022-12-07T02:44:07;98360.04;;;2.44;100.00
25664;BME280;13522;50.018;20.014;2022-12-07T02:47:23;98363.72;;;2.41;100.00
25664;BME280;13522;50.018;20.014;2022-12-07T02:50:36;98371.59;;;2.41;100.00
25664;BME280;13522;50.018;20.014;2022-12-07T02:53:49;98362.98;;;2.39;100.00
25664;BME280;13522;50.018;20.014;2022-12-07T02:57:05;98361.92;;;2.42;100.00
25664;BME280;13522;50.018;20.014;2022-12-07T03:00:22;98362.03;;;2.40;100.00
25664;BME280;13522;50.018;20.014;2022-12-07T03:03:35;98349.89;;;2.39;100.00
25664;BME280;13522;50.018;20.014;2022-12-07T03:06:51;98353.32;;;2.40;100.00
25664;BME280;13522;50.018;20.014;2022-12-07T03:10:09;98342.02;;;2.39;100.00
25664;BME280;13522;50.018;20.014;2022-12-07T03:13:28;98347.27;;;2.39;100.00
25664;BME280;13522;50.018;20.014;2022-12-07T03:16:45;98344.72;;;2.38;100.00
25664;BME280;13522;50.018;20.014;2022-12-07T03:19:58;98348.19;;;2.38;100.00
25664;BME280;13522;50.018;20.014;2022-12-07T03:23:13;98354.17;;;2.40;100.00
25664;BME280;13522;50.018;20.014;2022-12-07T03:26:30;98345.38;;;2.41;100.00
25664;BME280;13522;50.018;20.014;2022-12-07T03:29:48;98346.94;;;2.44;100.00
25664;BME280;13522;50.018;20.014;2022-12-07T03:33:04;98342.84;;;2.40;100.00
25664;BME280;13522;50.018;20.014;2022-12-07T03:36:18;98336.56;;;2.42;100.00
25664;BME280;13522;50.018;20.014;2022-12-07T03:39:36;98336.05;;;2.37;100.00
25664;BME280;13522;50.018;20.014;2022-12-07T03:42:47;98330.70;;;2.39;100.00
25664;BME280;13522;50.018;20.014;2022-12-07T03:46:04;98327.45;;;2.35;100.00
25664;BME280;13522;50.018;20.014;2022-12-07T03:49:21;98331.30;;;2.30;100.00
25664;BME280;13522;50.018;20.014;2022-12-07T03:52:39;98325.32;;;2.28;100.00
25664;BME280;13522;50.018;20.014;2022-12-07T03:55:53;98322.40;;;2.32;100.00
25664;BME280;13522;50.018;20.014;2022-12-07T03:59:06;98319.78;;;2.32;100.00
25664;BME280;13522;50.018;20.014;2022-12-07T04:02:19;98316.02;;;2.36;100.00
25664;BME280;13522;50.018;20.014;2022-12-07T04:05:31;98316.86;;;2.37;100.00
25664;BME280;13522;50.018;20.014;2022-12-07T04:08:43;98310.03;;;2.34;100.00
25664;BME280;13522;50.018;20.014;2022-12-07T04:11:55;98317.90;;;2.34;100.00
25664;BME280;13522;50.018;20.014;2022-12-07T04:15:09;98314.43;;;2.34;100.00
25664;BME280;13522;50.018;20.014;2022-12-07T04:18:21;98315.09;;;2.37;100.00
25664;BME280;13522;50.018;20.014;2022-12-07T04:21:33;98314.35;;;2.35;100.00
25664;BME280;13522;50.018;20.014;2022-12-07T04:24:45;98317.90;;;2.34;100.00
25664;BME280;13522;50.018;20.014;2022-12-07T04:27:56;98314.23;;;2.37;100.00
25664;BME280;13522;50.018;20.014;2022-12-07T04:31:08;98313.39;;;2.36;100.00
25664;BME280;13522;50.018;20.014;2022-12-07T04:34:21;98308.89;;;2.38;100.00
25664;BME280;13522;50.018;20.014;2022-12-07T04:37:33;98308.78;;;2.40;100.00
25664;BME280;13522;50.018;20.014;2022-12-07T04:40:45;98309.52;;;2.42;100.00
25664;BME280;13522;50.018;20.014;2022-12-07T04:43:59;98310.17;;;2.45;100.00
25664;BME280;13522;50.018;20.014;2022-12-07T04:47:13;98306.81;;;2.43;100.00
25664;BME280;13522;50.018;20.014;2022-12-07T04:50:25;98302.09;;;2.48;100.00
25664;BME280;13522;50.018;20.014;2022-12-07T04:53:37;98303.86;;;2.48;100.00
25664;BME280;13522;50.018;20.014;2022-12-07T04:56:48;98302.93;;;2.49;100.00
25664;BME280;13522;50.018;20.014;2022-12-07T05:00:00;98314.15;;;2.51;100.00
25664;BME280;13522;50.018;20.014;2022-12-07T05:03:12;98306.28;;;2.51;100.00
25664;BME280;13522;50.018;20.014;2022-12-07T05:06:24;98300.94;;;2.52;100.00
25664;BME280;13522;50.018;20.014;2022-12-07T05:09:36;98298.00;;;2.57;100.00
25664;BME280;13522;50.018;20.014;2022-12-07T05:12:48;98294.42;;;2.58;100.00
25664;BME280;13522;50.018;20.014;2022-12-07T05:16:00;98298.63;;;2.60;100.00
25664;BME280;13522;50.018;20.014;2022-12-07T05:19:13;98298.52;;;2.62;100.00
25664;BME280;13522;50.018;20.014;2022-12-07T05:22:25;98281.44;;;2.56;100.00
25664;BME280;13522;50.018;20.014;2022-12-07T05:25:37;98299.05;;;2.67;100.00
25664;BME280;13522;50.018;20.014;2022-12-07T05:28:52;98291.08;;;2.69;100.00
25664;BME280;13522;50.018;20.014;2022-12-07T05:32:05;98303.03;;;2.73;100.00
25664;BME280;13522;50.018;20.014;2022-12-07T05:35:18;98299.45;;;2.74;100.00
25664;BME280;13522;50.018;20.014;2022-12-07T05:38:30;98309.86;;;2.75;100.00
25664;BME280;13522;50.018;20.014;2022-12-07T05:41:43;98309.52;;;2.80;100.00
25664;BME280;13522;50.018;20.014;2022-12-07T05:45:11;98309.94;;;2.74;100.00
25664;BME280;13522;50.018;20.014;2022-12-07T05:48:23;98311.09;;;2.70;100.00
25664;BME280;13522;50.018;20.014;2022-12-07T05:51:35;98316.45;;;2.68;100.00
25664;BME280;13522;50.018;20.014;2022-12-07T05:54:47;98313.39;;;2.61;100.00
25664;BME280;13522;50.018;20.014;2022-12-07T05:57:58;98322.22;;;2.60;100.00
25664;BME280;13522;50.018;20.014;2022-12-07T06:01:25;98302.93;;;2.49;100.00
25664;BME280;13522;50.018;20.014;2022-12-07T06:04:39;98321.48;;;2.58;100.00
25664;BME280;13522;50.018;20.014;2022-12-07T06:07:52;98318.97;;;2.57;100.00
25664;BME280;13522;50.018;20.014;2022-12-07T06:11:07;98324.52;;;2.52;100.00
25664;BME280;13522;50.018;20.014;2022-12-07T06:14:33;98316.03;;;2.49;100.00
25664;BME280;13522;50.018;20.014;2022-12-07T06:17:46;98319.50;;;2.49;100.00
25664;BME280;13522;50.018;20.014;2022-12-07T06:20:58;98322.42;;;2.45;100.00
25664;BME280;13522;50.018;20.014;2022-12-07T06:24:12;98318.03;;;2.45;100.00
25664;BME280;13522;50.018;20.014;2022-12-07T06:27:24;98329.66;;;2.41;100.00
25664;BME280;13522;50.018;20.014;2022-12-07T06:30:38;98331.32;;;2.42;100.00
25664;BME280;13522;50.018;20.014;2022-12-07T06:33:50;98332.06;;;2.44;100.00
25664;BME280;13522;50.018;20.014;2022-12-07T06:37:04;98322.95;;;2.37;100.00
25664;BME280;13522;50.018;20.014;2022-12-07T06:40:16;98328.59;;;2.31;100.00
25664;BME280;13522;50.018;20.014;2022-12-07T06:43:28;98326.91;;;2.30;100.00
25664;BME280;13522;50.018;20.014;2022-12-07T06:46:40;98331.81;;;2.22;100.00
25664;BME280;13522;50.018;20.014;2022-12-07T06:49:52;98336.31;;;2.20;100.00
25664;BME280;13522;50.018;20.014;2022-12-07T06:53:04;98341.37;;;2.23;100.00
25664;BME280;13522;50.018;20.014;2022-12-07T06:56:17;98341.37;;;2.23;100.00
25664;BME280;13522;50.018;20.014;2022-12-07T06:59:30;98343.03;;;2.24;100.00
25664;BME280;13522;50.018;20.014;2022-12-07T07:02:42;98349.97;;;2.25;100.00
25664;BME280;13522;50.018;20.014;2022-12-07T07:05:54;98352.48;;;2.27;100.00
25664;BME280;13522;50.018;20.014;2022-12-07T07:09:05;98350.48;;;2.30;100.00
25664;BME280;13522;50.018;20.014;2022-12-07T07:12:18;98353.21;;;2.29;100.00
25664;BME280;13522;50.018;20.014;2022-12-07T07:15:30;98356.76;;;2.28;100.00
25664;BME280;13522;50.018;20.014;2022-12-07T07:18:42;98352.17;;;2.31;100.00
25664;BME280;13522;50.018;20.014;2022-12-07T07:21:54;98362.66;;;2.31;100.00
25664;BME280;13522;50.018;20.014;2022-12-07T07:25:07;98359.19;;;2.31;100.00
25664;BME280;13522;50.018;20.014;2022-12-07T07:28:19;98353.66;;;2.35;100.00
25664;BME280;13522;50.018;20.014;2022-12-07T07:31:32;98350.48;;;2.30;100.00
25664;BME280;13522;50.018;20.014;2022-12-07T07:34:44;98364.32;;;2.32;100.00
25664;BME280;13522;50.018;20.014;2022-12-07T07:37:57;98360.22;;;2.28;100.00
25664;BME280;13522;50.018;20.014;2022-12-07T07:41:09;98346.61;;;2.23;100.00
25664;BME280;13522;50.018;20.014;2022-12-07T07:44:21;98349.23;;;2.23;100.00
25664;BME280;13522;50.018;20.014;2022-12-07T07:47:35;98349.97;;;2.25;100.00
25664;BME280;13522;50.018;20.014;2022-12-07T07:50:47;98355.61;;;2.32;100.00
25664;BME280;13522;50.018;20.014;2022-12-07T07:53:59;98360.11;;;2.30;100.00
25664;BME280;13522;50.018;20.014;2022-12-07T07:57:11;98355.83;;;2.29;100.00
25664;BME280;13522;50.018;20.014;2022-12-07T08:00:24;98358.56;;;2.27;100.00
25664;BME280;13522;50.018;20.014;2022-12-07T08:03:36;98372.58;;;2.26;100.00
25664;BME280;13522;50.018;20.014;2022-12-07T08:06:48;98365.34;;;2.17;100.00
25664;BME280;13522;50.018;20.014;2022-12-07T08:10:00;98373.20;;;2.17;100.00
25664;BME280;13522;50.018;20.014;2022-12-07T08:13:13;98368.70;;;2.19;100.00
25664;BME280;13522;50.018;20.014;2022-12-07T08:16:28;98374.13;;;2.16;100.00
25664;BME280;13522;50.018;20.014;2022-12-07T08:19:40;98385.56;;;2.15;100.00
25664;BME280;13522;50.018;20.014;2022-12-07T08:22:53;98379.07;;;2.21;100.00
25664;BME280;13522;50.018;20.014;2022-12-07T08:26:06;98387.38;;;2.27;100.00
25664;BME280;13522;50.018;20.014;2022-12-07T08:29:19;98383.91;;;2.27;100.00
25664;BME280;13522;50.018;20.014;2022-12-07T08:32:31;98395.42;;;2.24;100.00
25664;BME280;13522;50.018;20.014;2022-12-07T08:35:43;98391.77;;;2.27;100.00
25664;BME280;13522;50.018;20.014;2022-12-07T08:38:55;98393.13;;;2.20;100.00
25664;BME280;13522;50.018;20.014;2022-12-07T08:42:09;98394.68;;;2.22;100.00
25664;BME280;13522;50.018;20.014;2022-12-07T08:45:22;98385.34;;;2.18;100.00
25664;BME280;13522;50.018;20.014;2022-12-07T08:48:38;98392.80;;;2.24;100.00
25664;BME280;13522;50.018;20.014;2022-12-07T08:51:52;98396.16;;;2.26;100.00
25664;BME280;13522;50.018;20.014;2022-12-07T08:55:06;98396.79;;;2.30;100.00
25664;BME280;13522;50.018;20.014;2022-12-07T08:58:18;98396.50;;;2.34;100.00
25664;BME280;13522;50.018;20.014;2022-12-07T09:01:31;98402.48;;;2.36;100.00
25664;BME280;13522;50.018;20.014;2022-12-07T09:04:44;98396.31;;;2.37;100.00
25664;BME280;13522;50.018;20.014;2022-12-07T09:07:59;98397.46;;;2.46;100.00
25664;BME280;13522;50.018;20.014;2022-12-07T09:11:12;98400.93;;;2.46;100.00
25664;BME280;13522;50.018;20.014;2022-12-07T09:14:27;98401.67;;;2.48;100.00
25664;BME280;13522;50.018;20.014;2022-12-07T09:17:39;98397.38;;;2.47;100.00
25664;BME280;13522;50.018;20.014;2022-12-07T09:20:51;98398.94;;;2.50;100.00
25664;BME280;13522;50.018;20.014;2022-12-07T09:24:03;98395.83;;;2.57;100.00
25664;BME280;13522;50.018;20.014;2022-12-07T09:27:15;98398.86;;;2.64;100.00
25664;BME280;13522;50.018;20.014;2022-12-07T09:30:28;98389.73;;;2.70;100.00
25664;BME280;13522;50.018;20.014;2022-12-07T09:33:43;98384.08;;;2.76;100.00
25664;BME280;13522;50.018;20.014;2022-12-07T09:36:55;98373.72;;;2.87;100.00
25664;BME280;13522;50.018;20.014;2022-12-07T09:40:09;98382.72;;;2.95;100.00
25664;BME280;13522;50.018;20.014;2022-12-07T09:43:24;98369.72;;;2.94;100.00
25664;BME280;13522;50.018;20.014;2022-12-07T09:46:39;98378.73;;;2.90;100.00
25664;BME280;13522;50.018;20.014;2022-12-07T09:49:52;98383.56;;;2.96;100.00
25664;BME280;13522;50.018;20.014;2022-12-07T09:53:10;98382.09;;;2.92;100.00
25664;BME280;13522;50.018;20.014;2022-12-07T09:56:25;98375.92;;;2.93;100.00
25664;BME280;13522;50.018;20.014;2022-12-07T09:59:38;98372.56;;;2.91;100.00
25664;BME280;13522;50.018;20.014;2022-12-07T10:02:56;98380.43;;;2.91;100.00
25664;BME280;13522;50.018;20.014;2022-12-07T10:06:13;98378.55;;;2.93;100.00
25664;BME280;13522;50.018;20.014;2022-12-07T10:09:25;98370.98;;;2.88;100.00
25664;BME280;13522;50.018;20.014;2022-12-07T10:12:57;98368.25;;;2.90;100.00
25664;BME280;13522;50.018;20.014;2022-12-07T10:16:27;98360.58;;;2.99;100.00
25664;BME280;13522;50.018;20.014;2022-12-07T10:19:45;98359.22;;;3.06;100.00
25664;BME280;13522;50.018;20.014;2022-12-07T10:23:03;98352.28;;;3.05;100.00
25664;BME280;13522;50.018;20.014;2022-12-07T10:26:29;98356.48;;;3.08;100.00
25664;BME280;13522;50.018;20.014;2022-12-07T10:29:46;98354.71;;;3.08;100.00
25664;BME280;13522;50.018;20.014;2022-12-07T10:32:59;98355.98;;;3.03;100.00
25664;BME280;13522;50.018;20.014;2022-12-07T10:36:26;98347.38;;;3.01;100.00
25664;BME280;13522;50.018;20.014;2022-12-07T10:39:45;98344.34;;;3.07;100.00
25664;BME280;13522;50.018;20.014;2022-12-07T10:43:05;98342.64;;;3.06;100.00
25664;BME280;13522;50.018;20.014;2022-12-07T10:46:53;98338.55;;;3.14;100.00
25664;BME280;13522;50.018;20.014;2022-12-07T10:50:50;98331.29;;;3.18;100.00
25664;BME280;13522;50.018;20.014;2022-12-07T10:54:10;98324.45;;;3.28;100.00
25664;BME280;13522;50.018;20.014;2022-12-07T10:57:34;98330.84;;;3.36;100.00
25664;BME280;13522;50.018;20.014;2022-12-07T11:01:01;98319.38;;;3.37;100.00
25664;BME280;13522;50.018;20.014;2022-12-07T11:04:27;98319.18;;;3.40;100.00
25664;BME280;13522;50.018;20.014;2022-12-07T11:07:49;98319.06;;;3.42;100.00
25664;BME280;13522;50.018;20.014;2022-12-07T11:11:08;98312.12;;;3.41;100.00
25664;BME280;13522;50.018;20.014;2022-12-07T11:14:25;98312.64;;;3.46;100.00
25664;BME280;13522;50.018;20.014;2022-12-07T11:17:42;98312.53;;;3.47;100.00
25664;BME280;13522;50.018;20.014;2022-12-07T11:21:04;98307.89;;;3.51;100.00
25664;BME280;13522;50.018;20.014;2022-12-07T11:24:20;98307.00;;;3.63;100.00
25664;BME280;13522;50.018;20.014;2022-12-07T11:27:39;98301.91;;;3.73;100.00
25664;BME280;13522;50.018;20.014;2022-12-07T11:30:58;98299.20;;;3.74;100.00
25664;BME280;13522;50.018;20.014;2022-12-07T11:34:18;98298.75;;;3.80;100.00
25664;BME280;13522;50.018;20.014;2022-12-07T11:37:34;98293.05;;;3.86;100.00
25664;BME280;13522;50.018;20.014;2022-12-07T11:40:50;98294.71;;;3.87;100.00
25664;BME280;13522;50.018;20.014;2022-12-07T11:44:14;98291.75;;;3.92;100.00
25664;BME280;13522;50.018;20.014;2022-12-07T11:47:34;98292.75;;;4.02;100.00
25664;BME280;13522;50.018;20.014;2022-12-07T11:50:52;98293.56;;;4.02;100.00
25664;BME280;13522;50.018;20.014;2022-12-07T11:54:13;98284.95;;;4.00;100.00
25664;BME280;13522;50.018;20.014;2022-12-07T11:57:32;98283.17;;;4.01;100.00
25664;BME280;13522;50.018;20.014;2022-12-07T12:00:44;98278.44;;;4.06;100.00
25664;BME280;13522;50.018;20.014;2022-12-07T12:04:01;98280.55;;;4.01;100.00
25664;BME280;13522;50.018;20.014;2022-12-07T12:07:17;98276.62;;;4.06;100.00
25664;BME280;13522;50.018;20.014;2022-12-07T12:10:40;98280.34;;;4.04;100.00
25664;BME280;13522;50.018;20.014;2022-12-07T12:14:14;98282.00;;;4.05;100.00
25664;BME280;13522;50.018;20.014;2022-12-07T12:18:07;98272.81;;;4.10;100.00
25664;BME280;13522;50.018;20.014;2022-12-07T12:21:32;98263.66;;;4.16;100.00
25664;BME280;13522;50.018;20.014;2022-12-07T12:24:46;98267.80;;;4.07;100.00
25664;BME280;13522;50.018;20.014;2022-12-07T12:28:00;98261.58;;;4.08;100.00
25664;BME280;13522;50.018;20.014;2022-12-07T12:31:15;98255.86;;;4.14;100.00
25664;BME280;13522;50.018;20.014;2022-12-07T12:34:40;98256.11;;;4.11;100.00
25664;BME280;13522;50.018;20.014;2022-12-07T12:41:55;98253.02;;;4.17;100.00
25664;BME280;13522;50.018;20.014;2022-12-07T12:45:23;98250.52;;;4.16;100.00
25664;BME280;13522;50.018;20.014;2022-12-07T12:48:38;98254.93;;;4.15;100.00
25664;BME280;13522;50.018;20.014;2022-12-07T12:51:52;98247.05;;;4.15;100.00
25664;BME280;13522;50.018;20.014;2022-12-07T12:55:17;98248.95;;;4.13;100.00
25664;BME280;13522;50.018;20.014;2022-12-07T12:58:44;98251.45;;;4.15;100.00
25664;BME280;13522;50.018;20.014;2022-12-07T13:02:14;98256.11;;;4.11;100.00
25664;BME280;13522;50.018;20.014;2022-12-07T13:05:33;98257.89;;;4.11;100.00
25664;BME280;13522;50.018;20.014;2022-12-07T13:08:45;98259.08;;;4.07;100.00
25664;BME280;13522;50.018;20.014;2022-12-07T13:12:01;98256.57;;;4.05;100.00
25664;BME280;13522;50.018;20.014;2022-12-07T13:15:35;98262.55;;;4.07;100.00
25664;BME280;13522;50.018;20.014;2022-12-07T13:18:48;98267.53;;;3.99;100.00
25664;BME280;13522;50.018;20.014;2022-12-07T13:22:00;98260.59;;;3.98;99.39
25664;BME280;13522;50.018;20.014;2022-12-07T13:25:20;98251.53;;;4.02;99.17
25664;BME280;13522;50.018;20.014;2022-12-07T13:28:37;98256.57;;;4.05;98.22
25664;BME280;13522;50.018;20.014;2022-12-07T13:31:52;98261.83;;;4.05;97.62
25664;BME280;13522;50.018;20.014;2022-12-07T13:35:30;98254.79;;;4.06;98.19
25664;BME280;13522;50.018;20.014;2022-12-07T13:38:49;98259.41;;;4.02;97.92
25664;BME280;13522;50.018;20.014;2022-12-07T13:42:23;98266.56;;;4.00;97.81
25664;BME280;13522;50.018;20.014;2022-12-07T13:45:27;98273.84;;;3.97;98.08
25664;BME280;13522;50.018;20.014;2022-12-07T13:49:01;98282.91;;;3.93;99.10
25664;BME280;13522;50.018;20.014;2022-12-07T13:52:19;98284.69;;;3.92;98.94
25664;BME280;13522;50.018;20.014;2022-12-07T13:55:32;98289.94;;;3.92;99.69
25664;BME280;13522;50.018;20.014;2022-12-07T13:58:44;98283.23;;;3.88;98.66
25664;BME280;13522;50.018;20.014;2022-12-07T14:01:56;98285.86;;;3.88;99.31
25664;BME280;13522;50.018;20.014;2022-12-07T14:05:13;98292.08;;;3.87;99.05
25664;BME280;13522;50.018;20.014;2022-12-07T14:08:30;98291.48;;;3.84;99.95
25664;BME280;13522;50.018;20.014;2022-12-07T14:11:42;98279.41;;;3.81;100.00
25664;BME280;13522;50.018;20.014;2022-12-07T14:14:55;98287.52;;;3.78;99.96
25664;BME280;13522;50.018;20.014;2022-12-07T14:18:27;98293.95;;;3.74;100.00
25664;BME280;13522;50.018;20.014;2022-12-07T14:21:40;98290.80;;;3.69;100.00
25664;BME280;13522;50.018;20.014;2022-12-07T14:24:57;98294.60;;;3.65;100.00
25664;BME280;13522;50.018;20.014;2022-12-07T14:28:29;98292.09;;;3.64;100.00
25664;BME280;13522;50.018;20.014;2022-12-07T14:31:42;98298.64;;;3.58;100.00
25664;BME280;13522;50.018;20.014;2022-12-07T14:35:02;98297.39;;;3.51;100.00
25664;BME280;13522;50.018;20.014;2022-12-07T14:38:18;98304.66;;;3.47;100.00
25664;BME280;13522;50.018;20.014;2022-12-07T14:41:31;98299.72;;;3.43;99.81
25664;BME280;13522;50.018;20.014;2022-12-07T14:45:02;98300.45;;;3.45;99.50
25664;BME280;13522;50.018;20.014;2022-12-07T14:48:17;98298.91;;;3.42;98.90
25664;BME280;13522;50.018;20.014;2022-12-07T14:51:30;98299.72;;;3.43;98.75
25664;BME280;13522;50.018;20.014;2022-12-07T14:54:45;98299.64;;;3.44;97.24
25664;BME280;13522;50.018;20.014;2022-12-07T14:57:57;98291.64;;;3.46;96.67
25664;BME280;13522;50.018;20.014;2022-12-07T15:01:10;98290.92;;;3.44;96.43
25664;BME280;13522;50.018;20.014;2022-12-07T15:04:22;98293.66;;;3.42;96.99
25664;BME280;13522;50.018;20.014;2022-12-07T15:07:34;98294.71;;;3.40;96.93
25664;BME280;13522;50.018;20.014;2022-12-07T15:10:47;98290.52;;;3.37;97.54
25664;BME280;13522;50.018;20.014;2022-12-07T15:13:59;98293.25;;;3.36;98.08
25664;BME280;13522;50.018;20.014;2022-12-07T15:17:18;98302.78;;;3.37;99.30
25664;BME280;13522;50.018;20.014;2022-12-07T15:20:32;98297.66;;;3.35;100.00
25664;BME280;13522;50.018;20.014;2022-12-07T15:23:45;98296.08;;;3.33;100.00
25664;BME280;13522;50.018;20.014;2022-12-07T15:26:58;98299.78;;;3.30;100.00
25664;BME280;13522;50.018;20.014;2022-12-07T15:30:11;98307.74;;;3.29;100.00
25664;BME280;13522;50.018;20.014;2022-12-07T15:33:23;98302.49;;;3.29;100.00
25664;BME280;13522;50.018;20.014;2022-12-07T15:36:36;98310.05;;;3.33;100.00
25664;BME280;13522;50.018;20.014;2022-12-07T15:39:48;98311.09;;;3.31;100.00
25664;BME280;13522;50.018;20.014;2022-12-07T15:43:00;98314.56;;;3.31;100.00
25664;BME280;13522;50.018;20.014;2022-12-07T15:46:14;98320.66;;;3.32;100.00
25664;BME280;13522;50.018;20.014;2022-12-07T15:49:26;98322.44;;;3.31;100.00
25664;BME280;13522;50.018;20.014;2022-12-07T15:52:39;98329.58;;;3.29;100.00
25664;BME280;13522;50.018;20.014;2022-12-07T15:55:51;98330.42;;;3.30;100.00
25664;BME280;13522;50.018;20.014;2022-12-07T15:59:03;98339.23;;;3.29;100.00
25664;BME280;13522;50.018;20.014;2022-12-07T16:02:15;98330.42;;;3.30;100.00
25664;BME280;13522;50.018;20.014;2022-12-07T16:05:28;98341.86;;;3.29;100.00
25664;BME280;13522;50.018;20.014;2022-12-07T16:08:43;98341.13;;;3.27;100.00
25664;BME280;13522;50.018;20.014;2022-12-07T16:11:55;98346.38;;;3.27;100.00
25664;BME280;13522;50.018;20.014;2022-12-07T16:15:09;98340.08;;;3.29;100.00
25664;BME280;13522;50.018;20.014;2022-12-07T16:18:24;98341.86;;;3.29;100.00
25664;BME280;13522;50.018;20.014;2022-12-07T16:21:36;98345.21;;;3.31;100.00
25664;BME280;13522;50.018;20.014;2022-12-07T16:24:48;98337.57;;;3.28;100.00
25664;BME280;13522;50.018;20.014;2022-12-07T16:28:00;98339.15;;;3.30;100.00
25664;BME280;13522;50.018;20.014;2022-12-07T16:31:14;98342.59;;;3.31;100.00
25664;BME280;13522;50.018;20.014;2022-12-07T16:34:29;98339.03;;;3.32;100.00
25664;BME280;13522;50.018;20.014;2022-12-07T16:37:42;98332.81;;;3.33;100.00
25664;BME280;13522;50.018;20.014;2022-12-07T16:40:54;98333.55;;;3.35;100.00
25664;BME280;13522;50.018;20.014;2022-12-07T16:44:09;98335.13;;;3.37;100.00
25664;BME280;13522;50.018;20.014;2022-12-07T16:47:22;98332.30;;;3.40;100.00
25664;BME280;13522;50.018;20.014;2022-12-07T16:50:34;98340.17;;;3.40;99.97
25664;BME280;13522;50.018;20.014;2022-12-07T16:53:48;98336.70;;;3.40;100.00
25664;BME280;13522;50.018;20.014;2022-12-07T16:57:03;98344.26;;;3.44;98.92
25664;BME280;13522;50.018;20.014;2022-12-07T17:00:16;98337.11;;;3.46;99.05
25664;BME280;13522;50.018;20.014;2022-12-07T17:03:30;98347.61;;;3.46;98.51
25664;BME280;13522;50.018;20.014;2022-12-07T17:06:42;98348.42;;;3.47;97.83
25664;BME280;13522;50.018;20.014;2022-12-07T17:09:55;98344.88;;;3.48;97.57